sensor_id;sensor_type;location;lat;lon;timestamp;pressure;altitude;pressure_sealevel;temperature;humidity
69707;BME280;56975;55.726;37.566;2023-07-31T00:00:00;98970.0;;;16.7;72.1
69707;BME280;56975;55.726;37.566;2023-07-31T00:05:00;98970.0;;;16.7;72.1
69707;BME280;56975;55.726;37.566;2023-07-31T00:10:00;98970.0;;;16.7;72.4
69707;BME280;56975;55.726;37.566;2023-07-31T00:15:00;98980.0;;;16.6;72.6
69707;BME280;56975;55.726;37.566;2023-07-31T00:20:00;98970.0;;;16.6;72.5
69707;BME280;56975;55.726;37.566;2023-07-31T00:25:00;98970.0;;;16.7;72.4
69707;BME280;56975;55.726;37.566;2023-07-31T00:30:00;98980.0;;;16.5;73.2
69707;BME280;56975;55.726;37.566;2023-07-31T00:35:00;98980.0;;;16.5;73.4
69707;BME280;56975;55.726;37.566;2023-07-31T00:40:00;98970.0;;;16.5;73.3
69707;BME280;56975;55.726;37.566;2023-07-31T00:45:00;98970.0;;;16.7;72.5
69707;BME280;56975;55.726;37.566;2023-07-31T00:50:00;98970.0;;;16.6;72.4
69707;BME280;56975;55.726;37.566;2023-07-31T00:55:00;98970.0;;;16.6;72.6
69707;BME280;56975;55.726;37.566;2023-07-31T01:00:00;98960.0;;;16.4;73.1
69707;BME280;56975;55.726;37.566;2023-07-31T01:05:01;98970.0;;;16.4;73.4
69707;BME280;56975;55.726;37.566;2023-07-31T01:10:04;98970.0;;;16.3;73.6
69707;BME280;56975;55.726;37.566;2023-07-31T01:15:06;98970.0;;;16.2;74.3
69707;BME280;56975;55.726;37.566;2023-07-31T01:20:02;98960.0;;;16.1;74.7
69707;BME280;56975;55.726;37.566;2023-07-31T01:25:09;98970.0;;;16.2;74.9
69707;BME280;56975;55.726;37.566;2023-07-31T01:30:05;98970.0;;;16.0;75.5
69707;BME280;56975;55.726;37.566;2023-07-31T01:35:01;98970.0;;;16.0;75.8
69707;BME280;56975;55.726;37.566;2023-07-31T01:40:00;98970.0;;;16.0;76.3
69707;BME280;56975;55.726;37.566;2023-07-31T01:45:00;98970.0;;;16.0;76.5
69707;BME280;56975;55.726;37.566;2023-07-31T01:50:00;98970.0;;;15.9;76.9
69707;BME280;56975;55.726;37.566;2023-07-31T01:55:00;98970.0;;;15.9;77.1
69707;BME280;56975;55.726;37.566;2023-07-31T02:00:00;98970.0;;;15.9;77.2
69707;BME280;56975;55.726;37.566;2023-07-31T02:05:00;98970.0;;;15.9;77.5
69707;BME280;56975;55.726;37.566;2023-07-31T02:10:00;98970.0;;;15.9;77.5
69707;BME280;56975;55.726;37.566;2023-07-31T02:15:00;98970.0;;;16.0;77.4
69707;BME280;56975;55.726;37.566;2023-07-31T02:20:00;98970.0;;;16.0;77.4
69707;BME280;56975;55.726;37.566;2023-07-31T02:25:00;98970.0;;;16.0;77.2
69707;BME280;56975;55.726;37.566;2023-07-31T02:30:00;98970.0;;;16.1;76.1
69707;BME280;56975;55.726;37.566;2023-07-31T02:35:00;98970.0;;;16.2;75.8
69707;BME280;56975;55.726;37.566;2023-07-31T02:40:00;98970.0;;;16.5;74.2
69707;BME280;56975;55.726;37.566;2023-07-31T02:45:00;98970.0;;;16.6;73.6
69707;BME280;56975;55.726;37.566;2023-07-31T02:50:00;98970.0;;;16.6;73.4
69707;BME280;56975;55.726;37.566;2023-07-31T02:55:00;98970.0;;;16.6;72.9
69707;BME280;56975;55.726;37.566;2023-07-31T03:00:00;98970.0;;;16.7;73.1
69707;BME280;56975;55.726;37.566;2023-07-31T03:05:00;98970.0;;;16.6;73.9
69707;BME280;56975;55.726;37.566;2023-07-31T03:10:00;98970.0;;;16.8;73.2
69707;BME280;56975;55.726;37.566;2023-07-31T03:15:00;98980.0;;;16.9;72.5
69707;BME280;56975;55.726;37.566;2023-07-31T03:20:00;98980.0;;;16.9;72.0
69707;BME280;56975;55.726;37.566;2023-07-31T03:25:00;98970.0;;;17.0;72.1
69707;BME280;56975;55.726;37.566;2023-07-31T03:30:00;98970.0;;;17.0;72.4
69707;BME280;56975;55.726;37.566;2023-07-31T03:35:00;98970.0;;;17.1;72.4
69707;BME280;56975;55.726;37.566;2023-07-31T03:40:00;98970.0;;;17.3;72.1
69707;BME280;56975;55.726;37.566;2023-07-31T03:45:00;98970.0;;;17.5;70.3
69707;BME280;56975;55.726;37.566;2023-07-31T03:50:00;98970.0;;;17.4;70.9
69707;BME280;56975;55.726;37.566;2023-07-31T03:55:00;98970.0;;;17.5;71.3
69707;BME280;56975;55.726;37.566;2023-07-31T04:00:00;98970.0;;;17.6;71.2
69707;BME280;56975;55.726;37.566;2023-07-31T04:05:00;98970.0;;;17.8;69.8
69707;BME280;56975;55.726;37.566;2023-07-31T04:10:00;98980.0;;;17.9;68.9
69707;BME280;56975;55.726;37.566;2023-07-31T04:15:00;98980.0;;;17.9;69.6
69707;BME280;56975;55.726;37.566;2023-07-31T04:20:00;98980.0;;;18.1;69.1
69707;BME280;56975;55.726;37.566;2023-07-31T04:25:00;98980.0;;;18.3;66.2
69707;BME280;56975;55.726;37.566;2023-07-31T04:30:00;98990.0;;;18.6;65.3
69707;BME280;56975;55.726;37.566;2023-07-31T04:35:00;98990.0;;;18.6;66.0
69707;BME280;56975;55.726;37.566;2023-07-31T04:40:00;98990.0;;;18.9;64.5
69707;BME280;56975;55.726;37.566;2023-07-31T04:45:00;99000.0;;;19.1;63.4
69707;BME280;56975;55.726;37.566;2023-07-31T04:50:00;98990.0;;;18.9;64.2
69707;BME280;56975;55.726;37.566;2023-07-31T04:55:00;99000.0;;;19.1;64.2
69707;BME280;56975;55.726;37.566;2023-07-31T05:00:00;99000.0;;;19.1;64.4
69707;BME280;56975;55.726;37.566;2023-07-31T05:05:00;99000.0;;;19.4;64.0
69707;BME280;56975;55.726;37.566;2023-07-31T05:10:00;99000.0;;;19.6;62.1
69707;BME280;56975;55.726;37.566;2023-07-31T05:15:00;99000.0;;;20.0;60.9
69707;BME280;56975;55.726;37.566;2023-07-31T05:20:00;99000.0;;;20.0;60.6
69707;BME280;56975;55.726;37.566;2023-07-31T05:25:00;98990.0;;;20.1;61.0
69707;BME280;56975;55.726;37.566;2023-07-31T05:30:00;98990.0;;;20.3;58.6
69707;BME280;56975;55.726;37.566;2023-07-31T05:35:00;99000.0;;;20.5;57.0
69707;BME280;56975;55.726;37.566;2023-07-31T05:40:00;99000.0;;;20.6;58.3
69707;BME280;56975;55.726;37.566;2023-07-31T05:45:00;99000.0;;;20.9;56.3
69707;BME280;56975;55.726;37.566;2023-07-31T05:50:00;99000.0;;;20.9;55.8
69707;BME280;56975;55.726;37.566;2023-07-31T05:55:00;99000.0;;;21.0;54.4
69707;BME280;56975;55.726;37.566;2023-07-31T06:00:00;99010.0;;;21.3;53.3
69707;BME280;56975;55.726;37.566;2023-07-31T06:05:00;99000.0;;;21.7;53.3
69707;BME280;56975;55.726;37.566;2023-07-31T06:10:00;99010.0;;;21.4;55.1
69707;BME280;56975;55.726;37.566;2023-07-31T06:15:01;99010.0;;;21.9;52.2
69707;BME280;56975;55.726;37.566;2023-07-31T06:20:00;99010.0;;;21.8;50.9
69707;BME280;56975;55.726;37.566;2023-07-31T06:25:00;99010.0;;;22.0;50.1
69707;BME280;56975;55.726;37.566;2023-07-31T06:30:00;99000.0;;;22.0;48.3
69707;BME280;56975;55.726;37.566;2023-07-31T06:35:00;99010.0;;;22.0;49.7
69707;BME280;56975;55.726;37.566;2023-07-31T06:40:00;99010.0;;;22.4;48.4
69707;BME280;56975;55.726;37.566;2023-07-31T06:45:00;99020.0;;;22.5;47.8
69707;BME280;56975;55.726;37.566;2023-07-31T06:50:00;99030.0;;;22.6;46.8
69707;BME280;56975;55.726;37.566;2023-07-31T06:55:01;99030.0;;;22.9;45.8
69707;BME280;56975;55.726;37.566;2023-07-31T07:00:00;99020.0;;;23.1;43.0
69707;BME280;56975;55.726;37.566;2023-07-31T07:05:00;99020.0;;;22.9;43.8
69707;BME280;56975;55.726;37.566;2023-07-31T07:10:00;99020.0;;;23.1;44.0
69707;BME280;56975;55.726;37.566;2023-07-31T07:15:00;99030.0;;;23.4;42.7
69707;BME280;56975;55.726;37.566;2023-07-31T07:20:00;99020.0;;;23.2;41.9
69707;BME280;56975;55.726;37.566;2023-07-31T07:25:00;99020.0;;;23.6;40.0
69707;BME280;56975;55.726;37.566;2023-07-31T07:30:00;99020.0;;;23.6;42.0
69707;BME280;56975;55.726;37.566;2023-07-31T07:35:00;99030.0;;;23.6;43.0
69707;BME280;56975;55.726;37.566;2023-07-31T07:40:00;99030.0;;;24.1;39.3
69707;BME280;56975;55.726;37.566;2023-07-31T07:45:00;99020.0;;;24.0;40.6
69707;BME280;56975;55.726;37.566;2023-07-31T07:50:00;99030.0;;;24.0;40.4
69707;BME280;56975;55.726;37.566;2023-07-31T07:55:00;99030.0;;;24.4;38.8
69707;BME280;56975;55.726;37.566;2023-07-31T08:00:00;99030.0;;;24.3;39.9
69707;BME280;56975;55.726;37.566;2023-07-31T08:05:00;99030.0;;;24.6;39.5
69707;BME280;56975;55.726;37.566;2023-07-31T08:10:00;99030.0;;;24.8;39.9
69707;BME280;56975;55.726;37.566;2023-07-31T08:15:00;99030.0;;;25.4;38.7
69707;BME280;56975;55.726;37.566;2023-07-31T08:20:00;99040.0;;;25.4;38.4
69707;BME280;56975;55.726;37.566;2023-07-31T08:25:00;99040.0;;;25.7;38.5
69707;BME280;56975;55.726;37.566;2023-07-31T08:30:00;99040.0;;;26.4;36.7
69707;BME280;56975;55.726;37.566;2023-07-31T08:35:00;99050.0;;;27.0;35.5
69707;BME280;56975;55.726;37.566;2023-07-31T08:40:00;99040.0;;;27.1;35.7
69707;BME280;56975;55.726;37.566;2023-07-31T08:45:01;99040.0;;;27.4;35.3
69707;BME280;56975;55.726;37.566;2023-07-31T08:50:01;99050.0;;;28.1;32.9
69707;BME280;56975;55.726;37.566;2023-07-31T08:55:00;99040.0;;;28.0;33.2
69707;BME280;56975;55.726;37.566;2023-07-31T09:00:00;99050.0;;;28.9;32.4
69707;BME280;56975;55.726;37.566;2023-07-31T09:05:00;99050.0;;;29.9;30.4
69707;BME280;56975;55.726;37.566;2023-07-31T09:10:00;99040.0;;;29.6;29.8
69707;BME280;56975;55.726;37.566;2023-07-31T09:15:00;99040.0;;;29.4;30.4
69707;BME280;56975;55.726;37.566;2023-07-31T09:20:13;99050.0;;;30.3;29.3
69707;BME280;56975;55.726;37.566;2023-07-31T09:25:18;99040.0;;;30.6;28.7
69707;BME280;56975;55.726;37.566;2023-07-31T09:30:00;99040.0;;;30.6;29.5
69707;BME280;56975;55.726;37.566;2023-07-31T09:35:00;99050.0;;;31.6;27.2
69707;BME280;56975;55.726;37.566;2023-07-31T09:40:00;99040.0;;;31.4;27.4
69707;BME280;56975;55.726;37.566;2023-07-31T09:45:07;99040.0;;;32.9;25.0
69707;BME280;56975;55.726;37.566;2023-07-31T09:50:00;99040.0;;;32.2;26.9
69707;BME280;56975;55.726;37.566;2023-07-31T09:55:00;99040.0;;;32.5;26.6
69707;BME280;56975;55.726;37.566;2023-07-31T10:00:00;99040.0;;;34.2;24.4
69707;BME280;56975;55.726;37.566;2023-07-31T10:05:03;99040.0;;;34.9;22.6
69707;BME280;56975;55.726;37.566;2023-07-31T10:10:00;99050.0;;;34.0;24.0
69707;BME280;56975;55.726;37.566;2023-07-31T10:15:00;99040.0;;;32.8;25.2
69707;BME280;56975;55.726;37.566;2023-07-31T10:20:02;99040.0;;;32.9;24.7
69707;BME280;56975;55.726;37.566;2023-07-31T10:25:00;99040.0;;;32.5;25.3
69707;BME280;56975;55.726;37.566;2023-07-31T10:30:00;99040.0;;;32.9;25.2
69707;BME280;56975;55.726;37.566;2023-07-31T10:35:01;99040.0;;;34.2;23.3
69707;BME280;56975;55.726;37.566;2023-07-31T10:40:03;99040.0;;;33.8;24.2
69707;BME280;56975;55.726;37.566;2023-07-31T10:45:02;99040.0;;;33.5;24.8
69707;BME280;56975;55.726;37.566;2023-07-31T10:50:11;99040.0;;;32.2;26.1
69707;BME280;56975;55.726;37.566;2023-07-31T10:55:14;99040.0;;;30.6;28.2
69707;BME280;56975;55.726;37.566;2023-07-31T11:00:18;99040.0;;;29.6;29.2
69707;BME280;56975;55.726;37.566;2023-07-31T11:05:08;99040.0;;;29.0;30.1
69707;BME280;56975;55.726;37.566;2023-07-31T11:10:00;99040.0;;;28.2;31.7
69707;BME280;56975;55.726;37.566;2023-07-31T11:15:00;99040.0;;;28.6;30.9
69707;BME280;56975;55.726;37.566;2023-07-31T11:20:00;99040.0;;;29.9;29.1
69707;BME280;56975;55.726;37.566;2023-07-31T11:25:01;99030.0;;;31.7;26.9
69707;BME280;56975;55.726;37.566;2023-07-31T11:30:00;99030.0;;;32.5;26.0
69707;BME280;56975;55.726;37.566;2023-07-31T11:35:00;99030.0;;;33.7;24.6
69707;BME280;56975;55.726;37.566;2023-07-31T11:40:01;99030.0;;;33.3;24.9
69707;BME280;56975;55.726;37.566;2023-07-31T11:45:02;99030.0;;;35.0;22.8
69707;BME280;56975;55.726;37.566;2023-07-31T11:50:00;99030.0;;;36.4;21.2
69707;BME280;56975;55.726;37.566;2023-07-31T11:55:00;99040.0;;;33.8;23.7
69707;BME280;56975;55.726;37.566;2023-07-31T12:00:01;99030.0;;;31.2;27.0
69707;BME280;56975;55.726;37.566;2023-07-31T12:05:01;99020.0;;;29.9;29.3
69707;BME280;56975;55.726;37.566;2023-07-31T12:10:00;99030.0;;;29.5;30.3
69707;BME280;56975;55.726;37.566;2023-07-31T12:15:00;99030.0;;;28.8;30.7
69707;BME280;56975;55.726;37.566;2023-07-31T12:20:00;99040.0;;;28.0;32.0
69707;BME280;56975;55.726;37.566;2023-07-31T12:25:00;99040.0;;;28.0;32.8
69707;BME280;56975;55.726;37.566;2023-07-31T12:30:00;99040.0;;;27.7;34.0
69707;BME280;56975;55.726;37.566;2023-07-31T12:35:00;99040.0;;;26.8;35.7
69707;BME280;56975;55.726;37.566;2023-07-31T12:40:00;99050.0;;;27.0;35.5
69707;BME280;56975;55.726;37.566;2023-07-31T12:45:00;99040.0;;;27.1;35.2
69707;BME280;56975;55.726;37.566;2023-07-31T12:50:00;99040.0;;;27.3;35.5
69707;BME280;56975;55.726;37.566;2023-07-31T12:55:00;99040.0;;;27.8;35.0
69707;BME280;56975;55.726;37.566;2023-07-31T13:00:00;99040.0;;;28.4;33.4
69707;BME280;56975;55.726;37.566;2023-07-31T13:05:00;99040.0;;;29.0;32.2
69707;BME280;56975;55.726;37.566;2023-07-31T13:10:00;99040.0;;;28.8;33.0
69707;BME280;56975;55.726;37.566;2023-07-31T13:15:00;99040.0;;;28.8;32.4
69707;BME280;56975;55.726;37.566;2023-07-31T13:20:00;99040.0;;;29.0;32.6
69707;BME280;56975;55.726;37.566;2023-07-31T13:25:00;99040.0;;;29.6;31.8
69707;BME280;56975;55.726;37.566;2023-07-31T13:30:00;99050.0;;;29.2;32.3
69707;BME280;56975;55.726;37.566;2023-07-31T13:35:00;99040.0;;;28.2;34.2
69707;BME280;56975;55.726;37.566;2023-07-31T13:40:00;99040.0;;;28.1;33.9
69707;BME280;56975;55.726;37.566;2023-07-31T13:45:00;99040.0;;;27.4;36.1
69707;BME280;56975;55.726;37.566;2023-07-31T13:50:00;99050.0;;;26.9;38.5
69707;BME280;56975;55.726;37.566;2023-07-31T13:55:00;99050.0;;;26.1;41.7
69707;BME280;56975;55.726;37.566;2023-07-31T14:00:00;99060.0;;;25.6;43.2
69707;BME280;56975;55.726;37.566;2023-07-31T14:05:00;99050.0;;;25.1;44.4
69707;BME280;56975;55.726;37.566;2023-07-31T14:10:00;99050.0;;;25.1;43.9
69707;BME280;56975;55.726;37.566;2023-07-31T14:15:00;99050.0;;;24.8;44.5
69707;BME280;56975;55.726;37.566;2023-07-31T14:20:00;99050.0;;;25.1;44.1
69707;BME280;56975;55.726;37.566;2023-07-31T14:25:00;99040.0;;;24.7;45.0
69707;BME280;56975;55.726;37.566;2023-07-31T14:30:00;99040.0;;;24.6;45.8
69707;BME280;56975;55.726;37.566;2023-07-31T14:35:00;99040.0;;;25.2;44.9
69707;BME280;56975;55.726;37.566;2023-07-31T14:40:00;99030.0;;;25.2;45.1
69707;BME280;56975;55.726;37.566;2023-07-31T14:45:00;99030.0;;;25.2;45.3
69707;BME280;56975;55.726;37.566;2023-07-31T14:50:00;99030.0;;;25.3;45.0
69707;BME280;56975;55.726;37.566;2023-07-31T14:55:00;99030.0;;;25.5;44.5
69707;BME280;56975;55.726;37.566;2023-07-31T15:00:00;99020.0;;;25.5;44.7
69707;BME280;56975;55.726;37.566;2023-07-31T15:05:00;99030.0;;;26.0;43.8
69707;BME280;56975;55.726;37.566;2023-07-31T15:10:01;99020.0;;;26.4;43.4
69707;BME280;56975;55.726;37.566;2023-07-31T15:15:00;99030.0;;;26.6;43.1
69707;BME280;56975;55.726;37.566;2023-07-31T15:20:00;99030.0;;;27.2;42.5
69707;BME280;56975;55.726;37.566;2023-07-31T15:25:00;99030.0;;;27.8;41.3
69707;BME280;56975;55.726;37.566;2023-07-31T15:30:00;99040.0;;;27.7;39.3
69707;BME280;56975;55.726;37.566;2023-07-31T15:35:00;99040.0;;;26.8;41.3
69707;BME280;56975;55.726;37.566;2023-07-31T15:40:00;99040.0;;;26.1;43.4
69707;BME280;56975;55.726;37.566;2023-07-31T15:45:00;99040.0;;;25.9;44.3
69707;BME280;56975;55.726;37.566;2023-07-31T15:50:00;99050.0;;;25.5;45.8
69707;BME280;56975;55.726;37.566;2023-07-31T15:55:00;99040.0;;;24.8;47.6
69707;BME280;56975;55.726;37.566;2023-07-31T16:00:01;99040.0;;;25.4;46.2
69707;BME280;56975;55.726;37.566;2023-07-31T16:05:00;99040.0;;;24.5;48.1
69707;BME280;56975;55.726;37.566;2023-07-31T16:10:00;99040.0;;;24.4;48.7
69707;BME280;56975;55.726;37.566;2023-07-31T16:15:00;99040.0;;;24.2;49.8
69707;BME280;56975;55.726;37.566;2023-07-31T16:20:00;99040.0;;;24.1;50.4
69707;BME280;56975;55.726;37.566;2023-07-31T16:25:00;99040.0;;;24.0;51.0
69707;BME280;56975;55.726;37.566;2023-07-31T16:30:00;99040.0;;;24.0;51.0
69707;BME280;56975;55.726;37.566;2023-07-31T16:35:00;99040.0;;;23.9;51.3
69707;BME280;56975;55.726;37.566;2023-07-31T16:40:00;99040.0;;;24.1;50.7
69707;BME280;56975;55.726;37.566;2023-07-31T16:45:00;99040.0;;;24.9;48.4
69707;BME280;56975;55.726;37.566;2023-07-31T16:50:00;99050.0;;;25.1;47.8
69707;BME280;56975;55.726;37.566;2023-07-31T16:55:00;99060.0;;;25.4;46.8
69707;BME280;56975;55.726;37.566;2023-07-31T17:00:00;99050.0;;;25.3;46.4
69707;BME280;56975;55.726;37.566;2023-07-31T17:05:00;99060.0;;;25.5;46.5
69707;BME280;56975;55.726;37.566;2023-07-31T17:10:00;99060.0;;;25.2;46.9
69707;BME280;56975;55.726;37.566;2023-07-31T17:15:00;99070.0;;;24.6;48.1
69707;BME280;56975;55.726;37.566;2023-07-31T17:20:00;99070.0;;;24.4;48.7
69707;BME280;56975;55.726;37.566;2023-07-31T17:25:00;99080.0;;;24.1;49.5
69707;BME280;56975;55.726;37.566;2023-07-31T17:30:00;99090.0;;;23.9;50.4
69707;BME280;56975;55.726;37.566;2023-07-31T17:35:00;99100.0;;;23.6;51.5
69707;BME280;56975;55.726;37.566;2023-07-31T17:40:00;99100.0;;;23.4;51.8
69707;BME280;56975;55.726;37.566;2023-07-31T17:45:00;99100.0;;;23.2;52.2
69707;BME280;56975;55.726;37.566;2023-07-31T17:50:00;99110.0;;;23.1;52.4
69707;BME280;56975;55.726;37.566;2023-07-31T17:55:00;99120.0;;;22.9;52.1
69707;BME280;56975;55.726;37.566;2023-07-31T18:00:00;99120.0;;;22.8;52.3
69707;BME280;56975;55.726;37.566;2023-07-31T18:05:00;99130.0;;;22.7;53.1
69707;BME280;56975;55.726;37.566;2023-07-31T18:10:00;99140.0;;;22.5;53.8
69707;BME280;56975;55.726;37.566;2023-07-31T18:15:00;99140.0;;;22.4;54.1
69707;BME280;56975;55.726;37.566;2023-07-31T18:20:00;99140.0;;;22.3;53.9
69707;BME280;56975;55.726;37.566;2023-07-31T18:25:00;99130.0;;;22.2;54.9
69707;BME280;56975;55.726;37.566;2023-07-31T18:30:00;99130.0;;;22.1;56.1
69707;BME280;56975;55.726;37.566;2023-07-31T18:35:00;99130.0;;;21.9;55.4
69707;BME280;56975;55.726;37.566;2023-07-31T18:40:00;99130.0;;;21.8;56.2
69707;BME280;56975;55.726;37.566;2023-07-31T18:45:00;99140.0;;;21.6;56.3
69707;BME280;56975;55.726;37.566;2023-07-31T18:50:00;99140.0;;;21.6;56.7
69707;BME280;56975;55.726;37.566;2023-07-31T18:55:00;99140.0;;;21.5;56.7
69707;BME280;56975;55.726;37.566;2023-07-31T19:00:00;99130.0;;;21.4;57.1
69707;BME280;56975;55.726;37.566;2023-07-31T19:05:00;99130.0;;;21.3;56.7
69707;BME280;56975;55.726;37.566;2023-07-31T19:10:00;99130.0;;;21.3;56.9
69707;BME280;56975;55.726;37.566;2023-07-31T19:15:00;99130.0;;;21.2;57.1
69707;BME280;56975;55.726;37.566;2023-07-31T19:20:00;99130.0;;;21.2;57.1
69707;BME280;56975;55.726;37.566;2023-07-31T19:25:00;99140.0;;;21.1;57.1
69707;BME280;56975;55.726;37.566;2023-07-31T19:30:00;99140.0;;;21.0;57.7
69707;BME280;56975;55.726;37.566;2023-07-31T19:35:00;99150.0;;;21.0;57.6
69707;BME280;56975;55.726;37.566;2023-07-31T19:40:00;99150.0;;;21.0;58.1
69707;BME280;56975;55.726;37.566;2023-07-31T19:45:00;99150.0;;;20.9;59.2
69707;BME280;56975;55.726;37.566;2023-07-31T19:50:00;99150.0;;;20.9;59.1
69707;BME280;56975;55.726;37.566;2023-07-31T19:55:00;99150.0;;;20.8;59.6
69707;BME280;56975;55.726;37.566;2023-07-31T20:00:00;99160.0;;;20.8;59.7
69707;BME280;56975;55.726;37.566;2023-07-31T20:05:00;99160.0;;;20.7;60.7
69707;BME280;56975;55.726;37.566;2023-07-31T20:10:00;99160.0;;;20.6;62.5
69707;BME280;56975;55.726;37.566;2023-07-31T20:15:03;99160.0;;;20.5;63.1
69707;BME280;56975;55.726;37.566;2023-07-31T20:20:00;99160.0;;;20.4;63.1
69707;BME280;56975;55.726;37.566;2023-07-31T20:25:00;99160.0;;;20.3;63.7
69707;BME280;56975;55.726;37.566;2023-07-31T20:30:00;99160.0;;;20.2;63.8
69707;BME280;56975;55.726;37.566;2023-07-31T20:35:00;99170.0;;;20.2;64.3
69707;BME280;56975;55.726;37.566;2023-07-31T20:40:04;99170.0;;;20.2;65.6
69707;BME280;56975;55.726;37.566;2023-07-31T20:45:00;99180.0;;;20.2;65.1
69707;BME280;56975;55.726;37.566;2023-07-31T20:50:00;99170.0;;;20.2;65.2
69707;BME280;56975;55.726;37.566;2023-07-31T20:55:00;99170.0;;;20.2;65.6
69707;BME280;56975;55.726;37.566;2023-07-31T21:00:00;99170.0;;;20.1;65.3
69707;BME280;56975;55.726;37.566;2023-07-31T21:05:00;99160.0;;;20.1;65.6
69707;BME280;56975;55.726;37.566;2023-07-31T21:10:01;99160.0;;;20.0;66.0
69707;BME280;56975;55.726;37.566;2023-07-31T21:15:00;99160.0;;;20.0;67.6
69707;BME280;56975;55.726;37.566;2023-07-31T21:20:00;99160.0;;;20.0;67.2
69707;BME280;56975;55.726;37.566;2023-07-31T21:25:00;99160.0;;;20.0;66.7
69707;BME280;56975;55.726;37.566;2023-07-31T21:30:00;99160.0;;;20.0;66.8
69707;BME280;56975;55.726;37.566;2023-07-31T21:35:00;99160.0;;;19.9;67.4
69707;BME280;56975;55.726;37.566;2023-07-31T21:40:00;99160.0;;;19.9;67.5
69707;BME280;56975;55.726;37.566;2023-07-31T21:45:00;99160.0;;;20.0;67.1
69707;BME280;56975;55.726;37.566;2023-07-31T21:50:00;99160.0;;;20.0;66.7
69707;BME280;56975;55.726;37.566;2023-07-31T21:55:00;99160.0;;;19.9;66.8
69707;BME280;56975;55.726;37.566;2023-07-31T22:00:01;99160.0;;;19.9;66.7
69707;BME280;56975;55.726;37.566;2023-07-31T22:05:01;99170.0;;;19.9;67.3
69707;BME280;56975;55.726;37.566;2023-07-31T22:10:00;99150.0;;;19.8;68.0
69707;BME280;56975;55.726;37.566;2023-07-31T22:15:00;99150.0;;;19.7;68.2
69707;BME280;56975;55.726;37.566;2023-07-31T22:20:00;99150.0;;;19.6;68.4
69707;BME280;56975;55.726;37.566;2023-07-31T22:25:00;99150.0;;;19.6;68.6
69707;BME280;56975;55.726;37.566;2023-07-31T22:30:00;99150.0;;;19.5;68.7
69707;BME280;56975;55.726;37.566;2023-07-31T22:35:00;99150.0;;;19.5;68.9
69707;BME280;56975;55.726;37.566;2023-07-31T22:40:00;99140.0;;;19.4;69.3
69707;BME280;56975;55.726;37.566;2023-07-31T22:45:00;99150.0;;;19.3;69.7
69707;BME280;56975;55.726;37.566;2023-07-31T22:50:00;99160.0;;;19.3;71.0
69707;BME280;56975;55.726;37.566;2023-07-31T22:55:00;99150.0;;;19.2;72.5
69707;BME280;56975;55.726;37.566;2023-07-31T23:00:00;99150.0;;;19.1;73.4
69707;BME280;56975;55.726;37.566;2023-07-31T23:05:00;99160.0;;;19.1;73.8
69707;BME280;56975;55.726;37.566;2023-07-31T23:10:00;99160.0;;;19.0;74.2
69707;BME280;56975;55.726;37.566;2023-07-31T23:15:01;99160.0;;;18.9;74.1
69707;BME280;56975;55.726;37.566;2023-07-31T23:20:00;99160.0;;;18.9;73.9
69707;BME280;56975;55.726;37.566;2023-07-31T23:25:00;99170.0;;;18.9;74.3
69707;BME280;56975;55.726;37.566;2023-07-31T23:30:00;99160.0;;;18.8;75.6
69707;BME280;56975;55.726;37.566;2023-07-31T23:35:00;99160.0;;;18.7;77.3
69707;BME280;56975;55.726;37.566;2023-07-31T23:40:00;99150.0;;;18.7;77.4
69707;BME280;56975;55.726;37.566;2023-07-31T23:45:00;99160.0;;;18.7;78.1
69707;BME280;56975;55.726;37.566;2023-07-31T23:50:00;99160.0;;;18.6;79.0
69707;BME280;56975;55.726;37.566;2023-07-31T23:55:00;99170.0;;;18.6;79.3
